Time;durP1;ratioP1;P1;durP2;ratioP2;P2;SDS_P1;SDS_P2;PMS_P1;PMS_P2;Temp;Humidity;BMP_temperature;BMP_pressure;BME280_temperature;BME280_humidity;BME280_pressure;Samples;Min_cycle;Max_cycle;Signal;HPM_P1;HPM_P2
2022/07/13 00:02:09;;;;;;;5.45;4.18;;;20.80;99.90;;;;;;5052428;28;20076;-60
2022/07/13 00:04:35;;;;;;;9.70;4.28;;;20.70;99.90;;;;;;5052161;28;20099;-60
2022/07/13 00:07:01;;;;;;;8.52;3.90;;;20.80;99.90;;;;;;5052597;28;20234;-61
2022/07/13 00:09:27;;;;;;;7.50;4.10;;;20.80;99.90;;;;;;5052611;28;20461;-61
2022/07/13 00:11:52;;;;;;;7.20;4.15;;;20.70;99.90;;;;;;5034287;28;20131;-61
2022/07/13 00:14:18;;;;;;;6.15;4.45;;;20.70;99.90;;;;;;5034396;28;20041;-61
2022/07/13 00:16:44;;;;;;;7.68;4.30;;;20.70;99.90;;;;;;5052196;28;20045;-61
2022/07/13 00:19:09;;;;;;;4.82;4.25;;;21.10;99.90;;;;;;5052570;28;20457;-60
2022/07/13 00:21:35;;;;;;;6.60;4.40;;;20.60;99.90;;;;;;5034034;28;20487;-60
2022/07/13 00:24:01;;;;;;;10.90;4.57;;;20.60;99.90;;;;;;5052311;28;20041;-60
2022/07/13 00:26:26;;;;;;;6.25;4.32;;;20.60;99.90;;;;;;5052060;28;20056;-60
2022/07/13 00:28:53;;;;;;;5.68;4.40;;;20.80;99.90;;;;;;5052174;28;20136;-61
2022/07/13 00:31:18;;;;;;;5.22;4.40;;;20.60;99.90;;;;;;5051915;28;20100;-60
2022/07/13 00:33:44;;;;;;;7.05;4.90;;;20.50;99.90;;;;;;5051731;28;20481;-61
2022/07/13 00:36:10;;;;;;;9.85;4.93;;;19.80;99.90;;;;;;5051679;28;20392;-60
2022/07/13 00:38:36;;;;;;;7.40;4.38;;;20.40;99.90;;;;;;5033920;28;20088;-61
2022/07/13 00:41:04;;;;;;;8.98;4.72;;;20.20;99.90;;;;;;5052006;28;20072;-60
2022/07/13 00:43:30;;;;;;;6.68;4.70;;;20.40;99.90;;;;;;5052038;28;20423;-60
2022/07/13 00:45:56;;;;;;;6.78;5.10;;;20.40;99.90;;;;;;5051433;28;20106;-61
2022/07/13 00:48:22;;;;;;;9.75;5.20;;;20.90;99.90;;;;;;5033740;28;20277;-61
2022/07/13 00:50:49;;;;;;;6.82;4.80;;;20.30;99.90;;;;;;5051975;28;20353;-61
2022/07/13 00:53:17;;;;;;;7.32;4.90;;;21.10;99.90;;;;;;5051884;28;20072;-60
2022/07/13 00:55:44;;;;;;;12.70;5.32;;;20.20;99.90;;;;;;5051725;28;20045;-60
2022/07/13 00:58:10;;;;;;;9.60;4.70;;;20.40;99.90;;;;;;5051523;28;20504;-60
2022/07/13 01:00:51;;;;;;;5.18;4.60;;;20.00;99.90;;;;;;5047443;23;20078;-56
2022/07/13 01:03:16;;;;;;;5.95;4.75;;;20.50;99.90;;;;;;4990381;28;20141;-57
2022/07/13 01:05:43;;;;;;;7.03;4.80;;;20.50;99.90;;;;;;4992724;28;20529;-57
2022/07/13 01:08:11;;;;;;;9.25;5.10;;;20.50;99.90;;;;;;4992671;28;20053;-58
2022/07/13 01:10:37;;;;;;;7.80;5.05;;;20.50;99.90;;;;;;4992766;28;20054;-57
2022/07/13 01:13:03;;;;;;;7.25;4.70;;;20.50;99.90;;;;;;4992688;28;20350;-57
2022/07/13 01:15:28;;;;;;;6.25;4.95;;;20.50;99.90;;;;;;4991674;28;20047;-57
2022/07/13 01:17:55;;;;;;;5.90;4.85;;;20.50;99.90;;;;;;4992644;28;20050;-57
2022/07/13 01:20:21;;;;;;;5.93;4.80;;;20.40;99.90;;;;;;4992161;28;20048;-57
2022/07/13 01:22:52;;;;;;;6.30;4.68;;;20.40;99.90;;;;;;4974987;28;20524;-57
2022/07/13 01:25:18;;;;;;;6.47;4.70;;;20.40;99.90;;;;;;4992550;28;20121;-57
2022/07/13 01:27:46;;;;;;;7.75;5.20;;;20.40;99.90;;;;;;4992470;28;20068;-57
2022/07/13 01:30:13;;;;;;;8.10;5.22;;;20.40;99.90;;;;;;4992345;28;20046;-57
2022/07/13 01:32:47;;;;;;;9.80;5.53;;;20.40;99.90;;;;;;4992640;28;20405;-58
2022/07/13 01:35:13;;;;;;;7.25;5.40;;;20.40;99.90;;;;;;4992383;28;20054;-55
2022/07/13 01:37:40;;;;;;;6.78;5.53;;;20.40;99.90;;;;;;4992316;28;20498;-57
2022/07/13 01:40:06;;;;;;;7.68;5.85;;;20.40;99.90;;;;;;4974715;28;20137;-57
2022/07/13 01:42:38;;;;;;;6.90;5.70;;;20.40;99.90;;;;;;4992184;28;20064;-57
2022/07/13 01:45:07;;;;;;;8.93;5.88;;;20.40;99.90;;;;;;4992188;28;20065;-57
2022/07/13 01:47:40;;;;;;;6.55;5.60;;;20.40;99.90;;;;;;4991926;28;20126;-58
2022/07/13 01:50:07;;;;;;;7.13;6.43;;;20.80;99.90;;;;;;4992074;28;20050;-57
2022/07/13 01:52:34;;;;;;;7.32;6.10;;;20.40;99.90;;;;;;4991757;28;20398;-57
2022/07/13 01:54:59;;;;;;;7.95;6.50;;;20.40;99.90;;;;;;4991782;28;20579;-57
2022/07/13 01:57:25;;;;;;;10.60;6.90;;;20.40;99.90;;;;;;4992075;28;20141;-57
2022/07/13 01:59:51;;;;;;;7.45;6.75;;;20.30;99.90;;;;;;4992061;28;20050;-57
2022/07/13 02:02:17;;;;;;;10.07;7.20;;;20.40;99.90;;;;;;4991551;28;20129;-57
2022/07/13 02:04:43;;;;;;;13.30;7.78;;;20.30;99.90;;;;;;4992227;28;20473;-57
2022/07/13 02:07:09;;;;;;;13.48;7.50;;;20.30;99.90;;;;;;4991676;28;20065;-57
2022/07/13 02:09:34;;;;;;;10.55;7.63;;;19.50;99.90;;;;;;4974305;28;20129;-57
2022/07/13 02:12:00;;;;;;;9.75;7.55;;;20.30;99.90;;;;;;4991749;28;20126;-57
2022/07/13 02:14:26;;;;;;;11.32;8.13;;;20.30;99.90;;;;;;4992077;28;20051;-58
2022/07/13 02:16:51;;;;;;;12.60;8.20;;;20.30;99.90;;;;;;4991736;28;20513;-57
2022/07/13 02:19:18;;;;;;;9.15;7.72;;;20.30;99.90;;;;;;4991982;28;20568;-57
2022/07/13 02:21:46;;;;;;;12.85;8.40;;;20.40;99.90;;;;;;4991527;28;20062;-57
2022/07/13 02:24:11;;;;;;;13.68;8.65;;;20.30;99.90;;;;;;4991955;28;20046;-57
2022/07/13 02:26:37;;;;;;;9.35;8.32;;;20.30;99.90;;;;;;4992780;28;20145;-57
2022/07/13 02:29:04;;;;;;;12.38;8.73;;;20.30;99.90;;;;;;4995146;28;20101;-57
2022/07/13 02:31:30;;;;;;;10.25;8.43;;;20.20;99.90;;;;;;4978006;28;20081;-57
2022/07/13 02:33:55;;;;;;;9.52;8.55;;;20.20;99.90;;;;;;4995364;28;20084;-58
2022/07/13 02:36:21;;;;;;;11.98;8.98;;;20.30;99.90;;;;;;4995401;28;20050;-57
2022/07/13 02:38:47;;;;;;;11.82;8.98;;;20.30;99.90;;;;;;4995318;28;20042;-58
2022/07/13 02:41:12;;;;;;;11.80;8.63;;;20.40;99.90;;;;;;4995243;28;20093;-58
2022/07/13 02:43:38;;;;;;;14.13;8.93;;;20.40;99.90;;;;;;4995309;28;20046;-58
2022/07/13 02:46:04;;;;;;;10.63;8.73;;;20.50;99.90;;;;;;4994883;28;20409;-58
2022/07/13 02:48:30;;;;;;;11.93;9.13;;;20.50;99.90;;;;;;4995096;28;20046;-58
2022/07/13 02:50:55;;;;;;;12.40;8.52;;;20.80;99.90;;;;;;4977696;28;20112;-57
2022/07/13 02:53:21;;;;;;;11.10;8.88;;;20.50;99.90;;;;;;4995045;28;20066;-57
2022/07/13 02:55:46;;;;;;;13.57;8.90;;;20.60;99.90;;;;;;4995143;28;20405;-58
2022/07/13 02:58:12;;;;;;;12.73;9.38;;;20.60;99.90;;;;;;4994881;28;20283;-58
2022/07/13 03:00:38;;;;;;;13.45;9.20;;;20.60;99.90;;;;;;4994937;28;20446;-58
2022/07/13 03:03:03;;;;;;;14.43;9.07;;;20.50;99.90;;;;;;4994465;28;20547;-58
2022/07/13 03:05:29;;;;;;;13.75;8.80;;;20.60;99.90;;;;;;4977611;28;20485;-58
2022/07/13 03:07:55;;;;;;;10.20;9.02;;;20.60;99.90;;;;;;4994686;28;20114;-57
2022/07/13 03:10:20;;;;;;;12.80;9.13;;;20.60;99.90;;;;;;4994479;28;20042;-58
2022/07/13 03:12:46;;;;;;;11.05;8.98;;;20.30;99.90;;;;;;4994658;28;20050;-58
2022/07/13 03:15:12;;;;;;;12.73;8.63;;;20.50;99.90;;;;;;4977302;28;20054;-57
2022/07/13 03:17:40;;;;;;;15.00;9.00;;;20.50;99.90;;;;;;4994593;28;20042;-58
2022/07/13 03:20:06;;;;;;;13.98;8.98;;;20.50;99.90;;;;;;4994569;28;20050;-58
2022/07/13 03:22:32;;;;;;;11.55;8.45;;;20.50;99.90;;;;;;4994499;28;20050;-58
2022/07/13 03:24:57;;;;;;;12.85;8.52;;;20.50;99.90;;;;;;4994611;28;20053;-58
2022/07/13 03:27:23;;;;;;;10.45;8.20;;;20.50;99.90;;;;;;4994069;28;20050;-58
2022/07/13 03:29:48;;;;;;;9.60;8.18;;;20.60;99.90;;;;;;4994264;28;20082;-58
2022/07/13 03:32:14;;;;;;;11.75;8.48;;;20.60;99.90;;;;;;4994274;28;20474;-58
2022/07/13 03:34:40;;;;;;;10.82;8.00;;;20.50;99.90;;;;;;4994101;28;20137;-58
2022/07/13 03:37:07;;;;;;;13.10;8.02;;;20.50;99.90;;;;;;4993961;28;20101;-58
2022/07/13 03:39:33;;;;;;;13.32;7.97;;;20.30;99.90;;;;;;4993196;28;20065;-58
2022/07/13 03:41:59;;;;;;;10.40;7.82;;;20.50;99.90;;;;;;4993777;28;20505;-58
2022/07/13 03:44:24;;;;;;;9.32;7.57;;;20.50;99.90;;;;;;4994197;28;20050;-58
2022/07/13 03:46:50;;;;;;;12.80;7.63;;;20.50;99.90;;;;;;4993627;28;20057;-58
2022/07/13 03:49:16;;;;;;;11.75;7.55;;;20.50;99.90;;;;;;4993623;28;20054;-56
2022/07/13 03:51:42;;;;;;;7.90;7.10;;;20.50;99.90;;;;;;4993693;28;20050;-56
2022/07/13 03:54:08;;;;;;;8.27;6.85;;;20.50;99.90;;;;;;4993815;28;20054;-56
2022/07/13 03:56:34;;;;;;;13.05;7.43;;;20.50;99.90;;;;;;4993644;28;20097;-56
2022/07/13 03:59:00;;;;;;;10.05;7.47;;;20.50;99.90;;;;;;4993477;28;20042;-56
2022/07/13 04:01:26;;;;;;;8.13;7.15;;;20.50;99.90;;;;;;4993494;28;20042;-56
2022/07/13 04:03:52;;;;;;;11.05;6.45;;;20.60;99.90;;;;;;4993274;28;20042;-56
2022/07/13 04:06:18;;;;;;;10.07;6.65;;;20.50;99.90;;;;;;4976103;28;20481;-56
2022/07/13 04:08:44;;;;;;;9.18;6.80;;;20.50;99.90;;;;;;4993532;28;20043;-56
2022/07/13 04:11:09;;;;;;;7.43;6.60;;;20.70;99.90;;;;;;4993536;28;20042;-56
2022/07/13 04:13:35;;;;;;;13.05;6.85;;;20.50;99.90;;;;;;4993526;28;20117;-56
2022/07/13 04:16:01;;;;;;;11.05;6.38;;;20.50;99.90;;;;;;4993265;28;20053;-59
2022/07/13 04:18:26;;;;;;;10.38;7.00;;;20.50;99.90;;;;;;4993046;28;20050;-57
2022/07/13 04:20:52;;;;;;;9.77;7.57;;;20.60;99.90;;;;;;4993417;28;20042;-57
2022/07/13 04:23:18;;;;;;;9.75;7.45;;;20.50;99.90;;;;;;4993322;28;20409;-58
2022/07/13 04:25:44;;;;;;;9.05;7.00;;;20.50;99.90;;;;;;4993554;28;20050;-57
2022/07/13 04:28:10;;;;;;;12.80;6.95;;;20.50;99.90;;;;;;4992967;28;20482;-57
2022/07/13 04:30:36;;;;;;;9.13;6.63;;;20.60;99.90;;;;;;4992819;28;20050;-57
2022/07/13 04:33:01;;;;;;;12.93;7.20;;;20.50;99.90;;;;;;4993198;28;20132;-57
2022/07/13 04:35:27;;;;;;;8.00;7.03;;;20.60;99.90;;;;;;4993302;28;20038;-58
2022/07/13 04:37:53;;;;;;;8.25;6.68;;;20.60;99.90;;;;;;4992788;28;20497;-57
2022/07/13 04:40:19;;;;;;;12.07;6.78;;;20.60;99.90;;;;;;4992614;28;20073;-58
2022/07/13 04:42:45;;;;;;;7.63;6.40;;;20.60;99.90;;;;;;4992780;28;20125;-57
2022/07/13 04:45:11;;;;;;;8.00;7.13;;;20.60;99.90;;;;;;4993211;28;20050;-57
2022/07/13 04:47:37;;;;;;;9.80;6.95;;;20.60;99.90;;;;;;4993029;28;20507;-57
2022/07/13 04:50:03;;;;;;;10.50;7.07;;;20.60;99.90;;;;;;4992548;28;20058;-57
2022/07/13 04:52:28;;;;;;;8.98;7.07;;;21.10;99.90;;;;;;4992471;28;20057;-57
2022/07/13 04:54:54;;;;;;;7.97;6.57;;;20.60;99.90;;;;;;4992964;28;20046;-55
2022/07/13 04:57:20;;;;;;;11.85;7.07;;;20.60;99.90;;;;;;4992367;28;20054;-55
2022/07/13 04:59:45;;;;;;;9.57;6.65;;;20.70;99.90;;;;;;4975091;28;20097;-55
2022/07/13 05:02:11;;;;;;;11.65;6.85;;;20.70;99.90;;;;;;4992305;28;20129;-55
2022/07/13 05:04:37;;;;;;;8.88;6.90;;;20.70;99.90;;;;;;4992839;28;20065;-55
2022/07/13 05:07:02;;;;;;;11.18;6.78;;;20.70;99.90;;;;;;4992695;28;20086;-55
2022/07/13 05:09:28;;;;;;;14.30;6.80;;;20.70;99.90;;;;;;4992656;28;20589;-57
2022/07/13 05:11:54;;;;;;;8.23;6.20;;;20.80;99.90;;;;;;4975180;28;20488;-57
2022/07/13 05:14:19;;;;;;;7.85;5.60;;;20.80;99.90;;;;;;4992225;28;20168;-57
2022/07/13 05:16:45;;;;;;;6.88;5.28;;;20.90;99.90;;;;;;4992769;28;20042;-56
2022/07/13 05:19:11;;;;;;;8.27;4.70;;;20.90;99.90;;;;;;4992242;28;20047;-56
2022/07/13 05:21:37;;;;;;;5.75;4.50;;;21.50;99.90;;;;;;4992195;28;20078;-55
2022/07/13 05:24:03;;;;;;;5.13;4.20;;;21.00;99.90;;;;;;4992310;28;20159;-56
2022/07/13 05:26:29;;;;;;;5.18;4.00;;;21.00;99.90;;;;;;4992632;28;20050;-55
2022/07/13 05:28:56;;;;;;;5.95;4.20;;;21.20;99.90;;;;;;4992395;28;20042;-55
2022/07/13 05:31:21;;;;;;;6.20;4.05;;;21.20;99.90;;;;;;4992040;28;20046;-57
2022/07/13 05:33:47;;;;;;;6.78;4.07;;;21.30;99.90;;;;;;4992296;28;20498;-55
2022/07/13 05:36:13;;;;;;;8.90;3.70;;;21.40;99.90;;;;;;4992450;28;20050;-56
2022/07/13 05:38:38;;;;;;;4.00;3.40;;;21.50;99.90;;;;;;4992340;28;20549;-55
2022/07/13 05:41:04;;;;;;;5.25;3.53;;;21.80;99.90;;;;;;4992158;28;20082;-55
2022/07/13 05:43:30;;;;;;;6.43;3.30;;;21.80;99.90;;;;;;4992319;28;20066;-55
2022/07/13 05:45:56;;;;;;;5.93;3.20;;;21.80;99.90;;;;;;4974741;28;20055;-55
2022/07/13 05:48:22;;;;;;;5.90;3.65;;;21.90;99.90;;;;;;4974507;28;20113;-55
2022/07/13 05:50:48;;;;;;;7.22;3.60;;;22.00;99.90;;;;;;4992156;28;20054;-57
2022/07/13 05:53:14;;;;;;;4.68;3.40;;;22.10;99.90;;;;;;4992208;28;20069;-57
2022/07/13 05:55:40;;;;;;;7.97;3.67;;;22.30;99.90;;;;;;4992342;28;20086;-57
2022/07/13 05:58:06;;;;;;;8.95;3.90;;;22.40;99.90;;;;;;4974752;28;20560;-58
2022/07/13 06:00:31;;;;;;;5.03;3.72;;;22.50;99.90;;;;;;4974880;28;20482;-57
2022/07/13 06:02:57;;;;;;;5.13;3.60;;;22.60;99.90;;;;;;4977615;28;20485;-57
2022/07/13 06:05:23;;;;;;;5.65;3.63;;;22.70;99.90;;;;;;4995820;28;20170;-58
2022/07/13 06:07:50;;;;;;;7.82;4.10;;;23.00;99.90;;;;;;4978064;28;20062;-57
2022/07/13 06:10:15;;;;;;;8.52;3.65;;;22.90;99.90;;;;;;4995734;28;20054;-57
2022/07/13 06:12:41;;;;;;;8.27;3.90;;;23.10;99.90;;;;;;4978335;28;20490;-58
2022/07/13 06:15:07;;;;;;;7.50;3.65;;;23.30;99.90;;;;;;4995853;28;20505;-58
2022/07/13 06:17:33;;;;;;;8.45;4.03;;;23.60;99.90;;;;;;4995789;28;20390;-58
2022/07/13 06:19:58;;;;;;;6.55;3.65;;;23.80;99.90;;;;;;4995405;28;20050;-57
2022/07/13 06:22:24;;;;;;;4.45;3.60;;;23.60;99.90;;;;;;4994949;28;20410;-57
2022/07/13 06:24:50;;;;;;;5.30;3.70;;;24.10;99.90;;;;;;4995048;28;20042;-58
2022/07/13 06:27:15;;;;;;;8.23;3.60;;;24.10;99.90;;;;;;4995111;28;20054;-57
2022/07/13 06:29:41;;;;;;;7.13;3.88;;;24.20;99.90;;;;;;4994973;28;20054;-58
2022/07/13 06:32:07;;;;;;;7.88;3.95;;;24.30;99.90;;;;;;4995009;28;20073;-57
2022/07/13 06:34:33;;;;;;;5.05;3.95;;;24.50;99.90;;;;;;4995384;28;20140;-58
2022/07/13 06:36:58;;;;;;;7.20;4.15;;;24.70;99.90;;;;;;4994827;28;20465;-57
2022/07/13 06:39:24;;;;;;;5.53;4.25;;;24.70;99.90;;;;;;4995171;28;20052;-57
2022/07/13 06:41:50;;;;;;;8.25;4.20;;;25.00;99.90;;;;;;4995072;28;20048;-57
2022/07/13 06:44:15;;;;;;;7.53;4.13;;;25.10;99.90;;;;;;4994821;28;20117;-57
2022/07/13 06:46:41;;;;;;;6.28;4.47;;;25.30;99.90;;;;;;4995037;28;20046;-57
2022/07/13 06:49:07;;;;;;;7.47;4.60;;;25.40;99.90;;;;;;4977316;28;20061;-57
2022/07/13 06:51:33;;;;;;;6.90;4.75;;;25.50;99.90;;;;;;4995128;28;20355;-58
2022/07/13 06:53:59;;;;;;;10.93;4.53;;;25.50;99.90;;;;;;4995174;28;20129;-58
2022/07/13 06:56:24;;;;;;;8.75;4.57;;;25.60;99.90;;;;;;4994971;28;20141;-58
2022/07/13 06:58:50;;;;;;;6.95;4.50;;;25.70;99.90;;;;;;4994865;28;20504;-58
2022/07/13 07:01:16;;;;;;;6.50;4.38;;;25.60;99.90;;;;;;4994769;28;20049;-57
2022/07/13 07:03:41;;;;;;;10.68;4.57;;;25.80;99.90;;;;;;4994919;28;20406;-57
2022/07/13 07:06:07;;;;;;;4.82;4.32;;;25.70;99.90;;;;;;4995005;28;20046;-57
2022/07/13 07:08:34;;;;;;;7.82;4.28;;;26.00;99.10;;;;;;4994505;28;20082;-56
2022/07/13 07:11:00;;;;;;;6.13;3.97;;;26.80;97.60;;;;;;4977425;28;20050;-57
2022/07/13 07:13:25;;;;;;;5.60;3.90;;;27.80;92.90;;;;;;4993413;28;20069;-57
2022/07/13 07:15:52;;;;;;;7.30;3.90;;;28.40;89.40;;;;;;4994689;28;20116;-57
2022/07/13 07:18:18;;;;;;;6.78;4.03;;;28.70;83.50;;;;;;4994614;28;20046;-57
2022/07/13 07:20:43;;;;;;;6.45;4.00;;;29.30;79.70;;;;;;4994321;28;20050;-58
2022/07/13 07:23:09;;;;;;;9.05;4.10;;;29.80;75.00;;;;;;4994486;28;20038;-58
2022/07/13 07:25:35;;;;;;;6.32;4.13;;;30.10;79.10;;;;;;4994959;28;20542;-58
2022/07/13 07:28:02;;;;;;;7.25;4.35;;;30.20;71.60;;;;;;4994361;28;20058;-58
2022/07/13 07:30:27;;;;;;;10.18;4.72;;;30.00;77.40;;;;;;4994409;28;20061;-58
2022/07/13 07:32:53;;;;;;;6.95;4.32;;;29.80;70.60;;;;;;4994069;28;20130;-58
2022/07/13 07:35:19;;;;;;;11.38;4.35;;;29.80;71.80;;;;;;4994348;28;20046;-58
2022/07/13 07:37:44;;;;;;;10.32;4.63;;;29.80;71.80;;;;;;4994359;28;20046;-58
2022/07/13 07:40:13;;;;;;;7.80;4.50;;;29.60;71.40;;;;;;4994183;28;20418;-58
2022/07/13 07:42:39;;;;;;;9.95;4.38;;;29.30;72.40;;;;;;4994057;28;20108;-58
2022/07/13 07:45:05;;;;;;;16.10;5.10;;;29.20;73.50;;;;;;4993769;28;20050;-58
2022/07/13 07:47:31;;;;;;;6.75;4.63;;;28.90;74.50;;;;;;4994277;28;20054;-62
2022/07/13 07:49:57;;;;;;;9.90;4.95;;;28.70;76.00;;;;;;4993806;28;20050;-59
2022/07/13 07:52:22;;;;;;;9.38;5.30;;;28.50;76.60;;;;;;4993730;28;20038;-58
2022/07/13 07:54:48;;;;;;;6.82;4.85;;;28.20;76.90;;;;;;4993576;28;20054;-58
2022/07/13 07:57:14;;;;;;;14.38;4.75;;;28.10;78.40;;;;;;4994015;28;20051;-58
2022/07/13 07:59:41;;;;;;;7.90;5.32;;;28.00;79.90;;;;;;4993855;28;20053;-58
2022/07/13 08:02:07;;;;;;;8.10;5.40;;;28.10;80.00;;;;;;4993426;28;20058;-58
2022/07/13 08:04:33;;;;;;;11.60;5.45;;;28.00;79.60;;;;;;4993409;28;20560;-58
2022/07/13 08:07:00;;;;;;;8.30;5.00;;;27.90;79.90;;;;;;4993707;28;20050;-58
2022/07/13 08:09:26;;;;;;;7.90;4.97;;;27.80;81.10;;;;;;4993565;28;20132;-57
2022/07/13 08:11:51;;;;;;;6.13;4.95;;;27.80;82.00;;;;;;4975799;28;20117;-58
2022/07/13 08:14:17;;;;;;;9.32;5.10;;;27.90;82.80;;;;;;4993505;28;20047;-57
2022/07/13 08:16:43;;;;;;;11.35;5.25;;;28.00;82.20;;;;;;4993610;28;20042;-58
2022/07/13 08:19:09;;;;;;;8.60;5.47;;;28.00;82.40;;;;;;4992963;28;20486;-58
2022/07/13 08:21:35;;;;;;;11.98;4.95;;;28.20;82.10;;;;;;4993121;28;20282;-57
2022/07/13 08:24:02;;;;;;;10.15;4.80;;;28.40;82.30;;;;;;4992852;28;20043;-57
2022/07/13 08:26:29;;;;;;;17.80;6.43;;;28.70;82.50;;;;;;4993043;28;20046;-55
2022/07/13 08:28:56;;;;;;;6.47;4.93;;;28.90;80.90;;;;;;4975554;28;20050;-56
2022/07/13 08:31:23;;;;;;;8.90;4.75;;;29.20;79.80;;;;;;4993219;28;20159;-55
2022/07/13 08:39:19;;;;;;;6.97;4.90;;;30.10;76.70;;;;;;4993091;28;20376;-56
2022/07/13 08:41:46;;;;;;;8.48;5.35;;;30.20;76.30;;;;;;4993110;28;20082;-56
2022/07/13 08:44:12;;;;;;;15.00;4.90;;;30.30;76.10;;;;;;4975582;28;20462;-56
2022/07/13 08:46:38;;;;;;;11.48;5.00;;;30.30;75.30;;;;;;4992744;28;20504;-56
2022/07/13 08:49:04;;;;;;;7.53;5.00;;;30.40;74.50;;;;;;4992550;28;20561;-56
2022/07/13 08:51:34;;;;;;;10.20;4.68;;;30.40;74.70;;;;;;4993061;28;20159;-56
2022/07/13 08:54:03;;;;;;;10.13;5.15;;;30.40;74.60;;;;;;4992877;28;20442;-56
2022/07/13 08:56:29;;;;;;;8.63;4.53;;;30.50;74.50;;;;;;4992814;28;20053;-56
2022/07/13 08:58:55;;;;;;;9.82;4.85;;;30.60;74.90;;;;;;4992871;28;20422;-56
2022/07/13 09:01:21;;;;;;;8.93;4.60;;;30.60;74.90;;;;;;4992698;28;20046;-56
2022/07/13 09:03:47;;;;;;;6.20;4.50;;;30.70;74.90;;;;;;4992704;28;20054;-56
2022/07/13 09:06:44;;;;;;;12.10;4.43;;;30.80;74.60;;;;;;4992609;28;20045;-56
2022/07/13 09:09:38;;;;;;;9.13;5.00;;;30.80;77.10;;;;;;4992197;28;20062;-56
2022/07/13 09:12:20;;;;;;;9.63;4.95;;;31.20;81.00;;;;;;4990070;28;20054;-56
2022/07/13 09:14:53;;;;;;;12.95;4.80;;;30.70;74.70;;;;;;4974687;28;20062;-56
2022/07/13 09:17:34;;;;;;;7.65;4.75;;;30.70;74.90;;;;;;4992739;28;20398;-56
2022/07/13 09:20:15;;;;;;;8.48;4.70;;;30.70;76.00;;;;;;4992394;28;20498;-56
2022/07/13 09:23:01;;;;;;;11.35;5.28;;;30.70;76.80;;;;;;4992513;28;20448;-56
2022/07/13 09:25:32;;;;;;;8.95;4.93;;;30.90;74.60;;;;;;4992346;28;20132;-57
2022/07/13 09:28:09;;;;;;;10.10;5.00;;;30.80;76.50;;;;;;4992306;28;20482;-56
2022/07/13 09:30:40;;;;;;;12.30;4.70;;;30.80;76.00;;;;;;4992280;28;20469;-56
2022/07/13 09:33:06;;;;;;;7.57;4.15;;;30.90;76.30;;;;;;4992524;28;20042;-57
2022/07/13 09:35:44;;;;;;;7.95;5.10;;;30.90;75.30;;;;;;4992336;28;20513;-56
2022/07/13 09:38:27;;;;;;;8.15;4.53;;;30.80;74.00;;;;;;4996148;28;20065;-56
2022/07/13 09:40:52;;;;;;;8.10;4.45;;;30.70;75.70;;;;;;4996361;28;20058;-56
2022/07/13 09:46:08;;;;;;;8.65;4.70;;;30.80;75.90;;;;;;4996447;28;20133;-57
2022/07/13 09:48:36;;;;;;;7.97;4.68;;;30.80;75.70;;;;;;4996347;28;20046;-57
2022/07/13 09:51:02;;;;;;;6.80;4.75;;;30.80;77.00;;;;;;4996252;28;20089;-57
2022/07/13 09:53:29;;;;;;;7.38;4.80;;;30.70;76.70;;;;;;4996007;28;20079;-57
2022/07/13 09:56:00;;;;;;;10.10;4.72;;;30.70;76.60;;;;;;4996030;28;20097;-57
2022/07/13 09:58:34;;;;;;;8.05;4.70;;;30.60;76.20;;;;;;4995853;28;20046;-57
2022/07/13 10:01:02;;;;;;;10.20;4.38;;;30.40;75.80;;;;;;4995701;28;20576;-57
2022/07/13 10:03:29;;;;;;;7.88;5.00;;;30.60;76.50;;;;;;4995186;28;20089;-57
2022/07/13 10:05:56;;;;;;;12.30;4.68;;;30.70;76.60;;;;;;4995429;28;20054;-57
2022/07/13 10:08:22;;;;;;;10.45;4.90;;;30.80;77.70;;;;;;4995657;28;20062;-57
2022/07/13 10:10:49;;;;;;;9.38;4.50;;;30.80;76.10;;;;;;4995797;28;20050;-58
2022/07/13 10:13:16;;;;;;;7.28;4.40;;;30.70;75.80;;;;;;4978409;28;20406;-58
2022/07/13 10:15:43;;;;;;;10.32;4.43;;;30.70;77.10;;;;;;4995578;28;20050;-57
2022/07/13 10:18:12;;;;;;;11.48;4.40;;;30.70;77.80;;;;;;4978069;28;20050;-55
2022/07/13 10:20:42;;;;;;;9.10;4.30;;;30.70;78.20;;;;;;4995465;28;20046;-59
2022/07/13 10:23:09;;;;;;;6.93;3.65;;;30.70;76.80;;;;;;4995562;28;20051;-59
2022/07/13 10:25:45;;;;;;;7.68;3.75;;;30.70;75.50;;;;;;4995652;28;20058;-59
2022/07/13 10:28:12;;;;;;;6.18;3.97;;;30.80;73.90;;;;;;4995538;28;20054;-56
2022/07/13 10:30:38;;;;;;;7.38;3.28;;;30.90;75.90;;;;;;4994609;28;20564;-57
2022/07/13 10:33:18;;;;;;;7.55;3.03;;;30.90;73.20;;;;;;4995297;28;20050;-56
2022/07/13 10:35:52;;;;;;;10.93;3.92;;;31.00;69.20;;;;;;4994885;28;20069;-57
2022/07/13 10:38:27;;;;;;;11.45;3.30;;;31.00;67.40;;;;;;4995078;28;20053;-58
2022/07/13 10:41:21;;;;;;;8.43;3.13;;;31.00;70.90;;;;;;4995175;28;20129;-59
2022/07/13 10:44:05;;;;;;;6.10;2.70;;;31.00;66.20;;;;;;4994869;28;20494;-59
2022/07/13 10:47:00;;;;;;;10.48;3.00;;;31.00;66.20;;;;;;4994634;28;20046;-59
2022/07/13 10:49:30;;;;;;;8.15;3.00;;;31.10;66.70;;;;;;4968764;28;20154;-59
2022/07/13 10:51:59;;;;;;;5.82;3.03;;;31.30;68.00;;;;;;4994510;28;20062;-58
2022/07/13 10:54:25;;;;;;;7.00;2.95;;;31.50;67.10;;;;;;4994294;28;20046;-59
2022/07/13 10:57:16;;;;;;;7.53;3.40;;;31.70;67.50;;;;;;4994727;28;20054;-58
2022/07/13 10:59:46;;;;;;;7.10;3.30;;;31.80;67.00;;;;;;4994556;28;20046;-56
2022/07/13 11:02:43;;;;;;;8.50;3.25;;;31.90;67.10;;;;;;4994094;28;20125;-57
2022/07/13 11:05:09;;;;;;;7.28;3.17;;;31.90;66.70;;;;;;4972306;28;20052;-57
2022/07/13 11:07:43;;;;;;;8.30;3.15;;;31.70;66.10;;;;;;4994486;28;20070;-57
2022/07/13 11:10:24;;;;;;;7.75;3.30;;;31.50;67.00;;;;;;4994632;28;20050;-57
2022/07/13 11:13:04;;;;;;;7.82;3.22;;;31.20;65.60;;;;;;4994297;28;20058;-57
2022/07/13 11:15:52;;;;;;;4.57;2.85;;;30.90;65.90;;;;;;4994306;28;20057;-57
2022/07/13 11:18:21;;;;;;;5.93;2.95;;;30.60;67.20;;;;;;4994126;28;20050;-56
2022/07/13 11:21:03;;;;;;;8.18;2.97;;;30.40;67.60;;;;;;4994257;28;20109;-56
2022/07/13 11:26:49;;;;;;;7.75;3.10;;;30.10;68.10;;;;;;4994021;28;20511;-57
2022/07/13 11:29:15;;;;;;;6.70;3.00;;;30.10;72.80;;;;;;4994095;28;20057;-57
2022/07/13 11:31:41;;;;;;;11.20;2.97;;;30.20;68.70;;;;;;4994451;28;20074;-56
2022/07/13 11:34:07;;;;;;;6.32;2.75;;;30.20;68.50;;;;;;4993937;28;20509;-57
2022/07/13 11:36:33;;;;;;;6.90;2.67;;;30.10;68.60;;;;;;4994275;28;20042;-58
2022/07/13 11:39:00;;;;;;;8.10;2.70;;;30.10;68.70;;;;;;4993994;28;20097;-57
2022/07/13 11:41:26;;;;;;;4.05;2.60;;;30.10;67.40;;;;;;4994073;28;20082;-57
2022/07/13 11:43:53;;;;;;;4.65;2.28;;;30.20;67.20;;;;;;4994105;28;20089;-57
2022/07/13 11:46:27;;;;;;;5.93;2.22;;;30.30;66.70;;;;;;4994133;28;20057;-57
2022/07/13 11:49:02;;;;;;;6.70;2.40;;;30.40;63.00;;;;;;4994123;28;20054;-58
2022/07/13 11:51:28;;;;;;;5.97;2.20;;;30.50;62.10;;;;;;4994149;28;20047;-57
2022/07/13 11:53:54;;;;;;;6.70;2.35;;;30.70;61.80;;;;;;4993969;28;20453;-57
2022/07/13 11:56:20;;;;;;;3.83;2.35;;;30.60;60.40;;;;;;4994185;28;20050;-57
2022/07/13 11:58:47;;;;;;;7.38;2.25;;;30.50;60.00;;;;;;4993029;28;20073;-56
2022/07/13 12:01:15;;;;;;;4.53;1.95;;;30.20;60.80;;;;;;4993692;28;20073;-56
2022/07/13 12:03:45;;;;;;;2.40;1.80;;;30.20;61.70;;;;;;4993336;28;20046;-56
2022/07/13 12:06:11;;;;;;;5.38;2.17;;;30.40;60.90;;;;;;4993748;28;20057;-57
2022/07/13 12:08:40;;;;;;;3.72;1.90;;;30.50;59.90;;;;;;4993747;28;20058;-56
2022/07/13 12:11:08;;;;;;;8.07;2.20;;;30.70;59.20;;;;;;4993729;28;20050;-57
2022/07/13 12:13:36;;;;;;;3.30;2.10;;;30.90;58.60;;;;;;4993754;28;20441;-56
2022/07/13 12:16:04;;;;;;;3.35;2.10;;;31.00;58.20;;;;;;4993284;28;20047;-57
2022/07/13 12:18:30;;;;;;;5.03;2.10;;;31.10;58.50;;;;;;4993841;28;20470;-60
2022/07/13 12:20:57;;;;;;;4.45;2.40;;;31.30;58.70;;;;;;4993206;28;20053;-60
2022/07/13 12:23:23;;;;;;;3.78;2.00;;;31.60;58.60;;;;;;4976131;28;20054;-57
2022/07/13 12:26:03;;;;;;;4.00;2.10;;;31.70;62.00;;;;;;4993363;28;20046;-59
2022/07/13 12:28:29;;;;;;;4.38;2.25;;;31.90;56.80;;;;;;4975644;28;20058;-60
2022/07/13 12:31:00;;;;;;;5.10;2.53;;;32.00;56.50;;;;;;4993072;28;20042;-59
2022/07/13 12:33:42;;;;;;;5.00;2.20;;;32.00;55.30;;;;;;4992860;28;20049;-59
2022/07/13 12:36:09;;;;;;;4.47;2.10;;;32.00;54.30;;;;;;4975564;28;20046;-60
2022/07/13 12:38:35;;;;;;;4.45;2.33;;;32.10;54.90;;;;;;4975467;28;20050;-59
2022/07/13 12:41:01;;;;;;;4.03;2.28;;;32.00;54.60;;;;;;4992856;28;20573;-60
2022/07/13 12:43:29;;;;;;;4.43;2.20;;;31.80;55.40;;;;;;4993002;28;20330;-56
2022/07/13 12:46:03;;;;;;;3.70;2.20;;;32.00;55.30;;;;;;4993105;28;20056;-56
2022/07/13 12:48:33;;;;;;;4.32;1.90;;;31.90;56.70;;;;;;4993019;28;20089;-57
2022/07/13 12:51:02;;;;;;;3.50;2.20;;;31.60;55.50;;;;;;4993007;28;20081;-57
2022/07/13 12:53:56;;;;;;;4.78;2.63;;;31.60;55.40;;;;;;4992586;28;20050;-56
2022/07/13 12:56:24;;;;;;;5.35;1.98;;;31.40;54.40;;;;;;4992629;28;20049;-56
2022/07/13 12:59:00;;;;;;;7.75;2.20;;;31.20;55.30;;;;;;4992626;28;20057;-56